createdAt,value
2018-01-11T00:00:59.628Z,37.30
2018-01-11T00:03:27.159Z,35.97
2018-01-11T00:05:54.646Z,34.80
2018-01-11T00:08:22.096Z,35.60
2018-01-11T00:10:49.633Z,38.07
2018-01-11T00:13:17.068Z,37.10
2018-01-11T00:15:44.544Z,36.57
2018-01-11T00:18:12.016Z,35.87
2018-01-11T00:20:39.512Z,39.00
2018-01-11T00:23:07.729Z,38.90
2018-01-11T00:25:35.209Z,36.43
2018-01-11T00:28:02.636Z,37.20
2018-01-11T00:30:30.088Z,38.10
2018-01-11T00:32:57.573Z,38.07
2018-01-11T00:35:25.003Z,38.73
2018-01-11T00:37:52.484Z,40.30
2018-01-11T00:40:19.916Z,38.10
2018-01-11T00:42:47.352Z,37.73
2018-01-11T00:45:15.568Z,37.60
2018-01-11T00:47:42.996Z,37.03
2018-01-11T00:50:10.494Z,38.97
2018-01-11T00:52:37.940Z,41.30
2018-01-11T00:55:05.384Z,39.30
2018-01-11T00:57:32.860Z,38.90
2018-01-11T01:00:00.317Z,46.80
2018-01-11T01:02:27.752Z,41.13
2018-01-11T01:04:55.188Z,40.10
2018-01-11T01:07:23.407Z,39.80
2018-01-11T01:09:50.836Z,40.30
2018-01-11T01:12:18.260Z,41.90
2018-01-11T01:14:45.841Z,41.03
2018-01-11T01:17:13.240Z,42.97
2018-01-11T01:19:40.692Z,43.97
2018-01-11T01:22:08.140Z,42.97
2018-01-11T01:24:35.569Z,43.93
2018-01-11T01:27:03.773Z,43.73
2018-01-11T01:29:31.237Z,46.00
2018-01-11T01:31:58.670Z,44.07
2018-01-11T01:34:26.148Z,46.40
2018-01-11T01:36:53.598Z,44.13
2018-01-11T01:39:21.038Z,44.57
2018-01-11T01:41:48.469Z,44.07
2018-01-11T01:44:16.682Z,45.73
2018-01-11T01:46:44.116Z,47.03
2018-01-11T01:49:12.308Z,42.27
2018-01-11T01:51:39.761Z,47.17
2018-01-11T01:54:07.240Z,45.60
2018-01-11T01:56:34.697Z,46.27
2018-01-11T01:59:02.172Z,46.33
2018-01-11T02:01:29.612Z,46.70
2018-01-11T02:03:57.053Z,49.07
2018-01-11T02:06:24.538Z,47.90
2018-01-11T02:08:52.079Z,48.03
2018-01-11T02:11:19.488Z,47.23
2018-01-11T02:13:47.716Z,46.73
2018-01-11T02:16:15.193Z,49.97
2018-01-11T02:18:42.624Z,45.70
2018-01-11T02:21:10.184Z,46.10
2018-01-11T02:23:37.594Z,45.63
2018-01-11T02:26:05.026Z,48.00
2018-01-11T02:28:32.472Z,46.90
2018-01-11T02:30:59.909Z,48.87
2018-01-11T02:33:27.385Z,49.73
2018-01-11T02:35:54.885Z,49.20
2018-01-11T02:38:23.086Z,48.90
2018-01-11T02:40:50.568Z,46.73
2018-01-11T02:43:18.125Z,49.30
2018-01-11T02:45:45.596Z,48.50
2018-01-11T02:48:13.044Z,47.07
2018-01-11T02:50:40.494Z,51.37
2018-01-11T02:53:07.968Z,50.80
2018-01-11T02:55:35.409Z,49.33
2018-01-11T02:58:02.908Z,47.27
2018-01-11T03:00:30.328Z,51.40
2018-01-11T03:02:57.775Z,50.13
2018-01-11T03:05:25.244Z,48.10
2018-01-11T03:07:52.671Z,46.40
2018-01-11T03:10:20.182Z,50.40
2018-01-11T03:12:47.718Z,48.50
2018-01-11T03:15:15.178Z,48.70
2018-01-11T03:17:42.727Z,49.77
2018-01-11T03:20:10.201Z,48.20
2018-01-11T03:22:37.652Z,52.73
2018-01-11T03:25:05.081Z,48.23
2018-01-11T03:27:32.528Z,48.77
2018-01-11T03:29:59.956Z,50.83
2018-01-11T03:32:27.384Z,52.77
2018-01-11T03:34:55.026Z,51.33
2018-01-11T03:37:22.588Z,50.07
2018-01-11T03:39:49.995Z,54.07
2018-01-11T03:42:17.508Z,47.90
2018-01-11T03:44:44.944Z,53.13
2018-01-11T03:47:12.424Z,52.07
2018-01-11T03:49:39.872Z,48.13
2018-01-11T03:52:07.316Z,54.70
2018-01-11T03:54:34.837Z,54.13
2018-01-11T03:57:02.364Z,42.97
2018-01-11T03:59:29.804Z,54.67
2018-01-11T04:01:57.280Z,48.30
2018-01-11T04:04:24.738Z,54.53
2018-01-11T04:06:52.174Z,57.43
2018-01-11T04:09:19.610Z,52.53
2018-01-11T04:11:47.192Z,56.07
2018-01-11T04:14:14.785Z,53.00
2018-01-11T04:16:42.212Z,60.53
2018-01-11T04:19:09.664Z,54.87
2018-01-11T04:21:37.132Z,51.43
2018-01-11T04:24:04.592Z,54.17
2018-01-11T04:26:32.148Z,54.80
2018-01-11T04:28:59.584Z,57.00
2018-01-11T04:31:27.078Z,57.63
2018-01-11T04:33:54.699Z,57.67
2018-01-11T04:36:22.180Z,54.97
2018-01-11T04:38:49.619Z,57.20
2018-01-11T04:41:17.101Z,51.77
2018-01-11T04:43:44.551Z,55.33
2018-01-11T04:46:11.990Z,53.30
2018-01-11T04:48:39.480Z,57.90
2018-01-11T04:51:06.921Z,58.67
2018-01-11T04:53:34.344Z,60.73
2018-01-11T04:56:02.483Z,59.87
2018-01-11T04:58:29.914Z,62.00
2018-01-11T05:00:57.340Z,56.37
2018-01-11T05:03:24.784Z,57.57
2018-01-11T05:05:52.980Z,60.67
2018-01-11T05:08:20.418Z,63.83
2018-01-11T05:10:48.629Z,57.17
2018-01-11T05:13:16.084Z,50.40
2018-01-11T05:15:43.638Z,61.30
2018-01-11T05:18:11.108Z,54.23
2018-01-11T05:20:38.550Z,58.70
2018-01-11T05:23:05.984Z,72.03
2018-01-11T05:25:33.434Z,63.53
2018-01-11T05:28:01.628Z,59.80
2018-01-11T05:30:29.057Z,58.20
2018-01-11T05:32:57.280Z,55.97
2018-01-11T05:35:24.832Z,62.93
2018-01-11T05:37:52.236Z,59.80
2018-01-11T05:40:20.456Z,59.03
2018-01-11T05:42:47.884Z,62.63
2018-01-11T05:45:16.115Z,57.40
2018-01-11T05:47:43.668Z,60.53
2018-01-11T05:50:11.099Z,59.13
2018-01-11T05:52:38.575Z,64.80
2018-01-11T05:55:06.025Z,64.53
2018-01-11T05:57:33.489Z,66.33
2018-01-11T06:00:00.933Z,56.70
2018-01-11T06:02:28.399Z,64.97
2018-01-11T06:04:55.812Z,67.53
2018-01-11T06:07:24.014Z,66.10
2018-01-11T06:09:51.460Z,70.47
2018-01-11T06:12:18.896Z,59.57
2018-01-11T06:14:46.413Z,47.67
2018-01-11T06:17:13.856Z,62.80
2018-01-11T06:19:41.330Z,60.53
2018-01-11T06:22:08.789Z,64.30
2018-01-11T06:24:36.340Z,58.27
2018-01-11T06:27:03.776Z,78.67
2018-01-11T06:29:31.257Z,81.03
2018-01-11T06:31:58.718Z,66.17
2018-01-11T06:34:26.148Z,70.27
2018-01-11T06:36:53.632Z,63.00
2018-01-11T06:39:21.076Z,67.77
2018-01-11T06:41:48.518Z,59.63
2018-01-11T06:44:15.996Z,69.27
2018-01-11T06:46:43.452Z,57.20
2018-01-11T06:49:10.914Z,65.83
2018-01-11T06:51:38.344Z,62.90
2018-01-11T06:54:05.825Z,76.77
2018-01-11T06:56:33.258Z,67.77
2018-01-11T06:59:00.683Z,66.37
2018-01-11T07:01:28.138Z,60.97
2018-01-11T07:03:56.374Z,77.47
2018-01-11T07:06:23.803Z,97.43
2018-01-11T07:08:51.248Z,125.33
2018-01-11T07:11:19.448Z,153.77
2018-01-11T07:13:46.896Z,151.03
2018-01-11T07:16:14.382Z,152.37
2018-01-11T07:18:41.824Z,163.67
2018-01-11T07:21:09.268Z,161.63
2018-01-11T07:23:36.758Z,156.70
2018-01-11T07:26:04.216Z,151.97
2018-01-11T07:28:31.776Z,172.73
2018-01-11T07:30:59.327Z,169.00
2018-01-11T07:33:26.766Z,158.63
2018-01-11T07:35:54.212Z,104.83
2018-01-11T07:38:21.704Z,114.33
2018-01-11T07:40:49.148Z,114.37
2018-01-11T07:43:16.584Z,110.33
2018-01-11T07:45:44.068Z,130.67
2018-01-11T07:48:11.501Z,148.10
2018-01-11T07:50:38.984Z,144.27
2018-01-11T07:53:06.433Z,132.77
2018-01-11T07:55:33.896Z,154.03
2018-01-11T07:58:01.362Z,108.20
2018-01-11T08:00:28.812Z,116.50
2018-01-11T08:02:56.283Z,94.37
2018-01-11T08:05:23.716Z,85.57
2018-01-11T08:07:51.161Z,93.17
2018-01-11T08:10:18.636Z,105.07
2018-01-11T08:12:46.117Z,82.40
2018-01-11T08:15:13.550Z,94.07
2018-01-11T08:17:40.961Z,105.43
2018-01-11T08:20:09.183Z,78.17
2018-01-11T08:22:36.642Z,81.60
2018-01-11T08:25:04.111Z,71.17
2018-01-11T08:27:31.650Z,66.83
2018-01-11T08:29:59.085Z,59.83
2018-01-11T08:32:26.522Z,67.67
2018-01-11T08:34:54.837Z,56.73
2018-01-11T08:37:22.304Z,63.17
2018-01-11T08:39:49.756Z,67.40
2018-01-11T08:42:17.260Z,61.77
2018-01-11T08:44:44.789Z,65.83
2018-01-11T08:47:12.224Z,59.77
2018-01-11T08:49:39.696Z,62.57
2018-01-11T08:52:07.140Z,59.03
2018-01-11T08:54:34.683Z,64.90
2018-01-11T08:57:02.873Z,60.67
2018-01-11T08:59:30.349Z,55.50
2018-01-11T09:01:57.893Z,57.87
2018-01-11T09:04:25.380Z,59.93
2018-01-11T09:06:52.824Z,56.87
2018-01-11T09:09:20.279Z,57.80
2018-01-11T09:11:47.741Z,57.43
2018-01-11T09:14:15.183Z,59.33
2018-01-11T09:16:42.620Z,62.60
2018-01-11T09:19:10.056Z,60.70
2018-01-11T09:21:38.264Z,65.47
2018-01-11T09:24:05.697Z,62.07
2018-01-11T09:26:33.911Z,52.80
2018-01-11T09:29:01.473Z,56.47
2018-01-11T09:31:28.913Z,58.33
2018-01-11T09:33:56.369Z,53.40
2018-01-11T09:36:23.836Z,62.17
2018-01-11T09:38:51.292Z,58.83
2018-01-11T09:41:18.724Z,65.73
2018-01-11T09:43:46.171Z,51.97
2018-01-11T09:46:14.372Z,55.10
2018-01-11T09:48:41.805Z,53.33
2018-01-11T09:51:10.113Z,51.63
2018-01-11T09:53:37.545Z,51.00
2018-01-11T09:56:04.996Z,53.70
2018-01-11T09:58:32.446Z,56.60
2018-01-11T10:01:00.660Z,66.33
2018-01-11T10:03:28.118Z,63.73
2018-01-11T10:05:55.564Z,64.13
2018-01-11T10:08:23.004Z,54.67
2018-01-11T10:10:50.424Z,58.90
2018-01-11T10:13:17.966Z,58.07
2018-01-11T10:15:45.401Z,63.97
2018-01-11T10:18:12.860Z,61.80
2018-01-11T10:20:40.317Z,54.70
2018-01-11T10:23:07.773Z,58.77
2018-01-11T10:25:35.244Z,58.47
2018-01-11T10:28:02.792Z,56.30
2018-01-11T10:30:30.248Z,58.87
2018-01-11T10:32:57.724Z,60.70
2018-01-11T10:35:25.360Z,51.73
2018-01-11T10:37:52.801Z,52.80
2018-01-11T10:40:20.244Z,54.70
2018-01-11T10:42:48.560Z,54.93
2018-01-11T10:45:16.008Z,54.60
2018-01-11T10:47:43.472Z,56.87
2018-01-11T10:50:10.928Z,50.23
2018-01-11T10:52:38.364Z,55.17
2018-01-11T10:55:05.796Z,53.13
2018-01-11T10:57:34.010Z,55.50
2018-01-11T11:00:02.264Z,53.00
2018-01-11T11:02:35.479Z,59.00
2018-01-11T11:05:02.944Z,59.27
2018-01-11T11:07:30.400Z,55.60
2018-01-11T11:09:57.872Z,59.27
2018-01-11T11:12:25.307Z,57.17
2018-01-11T11:14:52.740Z,55.27
2018-01-11T11:17:20.188Z,59.97
2018-01-11T11:19:48.404Z,55.97
2018-01-11T11:22:15.840Z,54.50
2018-01-11T11:24:43.320Z,58.70
2018-01-11T11:27:10.776Z,58.67
2018-01-11T11:29:38.214Z,56.87
2018-01-11T11:32:05.671Z,53.63
2018-01-11T11:34:33.148Z,55.07
2018-01-11T11:37:00.598Z,59.47
2018-01-11T11:39:28.041Z,57.87
2018-01-11T11:41:55.464Z,58.63
2018-01-11T11:44:23.692Z,55.90
2018-01-11T11:46:51.139Z,57.63
2018-01-11T11:49:18.600Z,58.40
2018-01-11T11:51:46.008Z,69.90
2018-01-11T11:54:13.520Z,56.37
2018-01-11T11:56:40.980Z,56.47
2018-01-11T11:59:08.405Z,57.77
2018-01-11T12:01:35.849Z,50.77
2018-01-11T12:04:04.051Z,52.20
2018-01-11T12:06:31.480Z,54.63
2018-01-11T12:08:59.708Z,60.10
2018-01-11T12:11:27.156Z,54.93
2018-01-11T12:13:54.612Z,54.83
2018-01-11T12:16:22.072Z,55.30
2018-01-11T12:18:49.529Z,51.97
2018-01-11T12:21:16.984Z,59.47
2018-01-11T12:23:44.524Z,50.93
2018-01-11T12:26:11.953Z,56.17
2018-01-11T12:28:40.177Z,48.43
2018-01-11T12:31:07.639Z,49.13
2018-01-11T12:33:35.067Z,48.97
2018-01-11T12:36:02.497Z,49.63
2018-01-11T12:38:30.716Z,49.60
2018-01-11T12:40:58.140Z,48.03
2018-01-11T12:43:26.332Z,47.90
2018-01-11T12:45:53.838Z,47.43
2018-01-11T12:48:21.269Z,48.67
2018-01-11T12:50:48.738Z,44.03
2018-01-11T12:53:16.182Z,43.60
2018-01-11T12:55:43.608Z,44.13
2018-01-11T12:58:11.089Z,44.33
2018-01-11T13:00:38.529Z,48.03
2018-01-11T13:03:05.984Z,44.37
2018-01-11T13:05:33.410Z,46.33
2018-01-11T13:08:00.925Z,47.70
2018-01-11T13:10:28.360Z,47.03
2018-01-11T13:12:55.841Z,49.20
2018-01-11T13:15:23.283Z,45.30
2018-01-11T13:17:50.712Z,46.83
2018-01-11T13:20:18.925Z,48.13
2018-01-11T13:22:46.395Z,44.90
2018-01-11T13:25:13.816Z,45.37
2018-01-11T13:27:41.244Z,45.73
2018-01-11T13:30:09.478Z,46.83
2018-01-11T13:32:36.917Z,46.60
2018-01-11T13:35:04.345Z,47.50
2018-01-11T13:37:32.554Z,46.33
2018-01-11T13:39:59.984Z,48.73
2018-01-11T13:42:27.479Z,47.20
2018-01-11T13:44:54.947Z,44.43
2018-01-11T13:47:22.390Z,42.50
2018-01-11T13:49:49.850Z,44.87
2018-01-11T13:52:17.297Z,39.00
2018-01-11T13:54:44.762Z,37.03
2018-01-11T13:57:12.218Z,39.00
2018-01-11T13:59:39.678Z,39.77
2018-01-11T14:02:07.131Z,41.23
2018-01-11T14:04:34.577Z,40.07
2018-01-11T14:07:02.017Z,41.67
2018-01-11T14:09:29.463Z,42.20
2018-01-11T14:11:56.872Z,43.80
2018-01-11T14:14:24.313Z,47.97
2018-01-11T14:16:51.768Z,43.77
2018-01-11T14:19:19.208Z,43.97
2018-01-11T14:21:46.653Z,43.53
2018-01-11T14:24:14.188Z,42.40
2018-01-11T14:26:41.597Z,41.90
2018-01-11T14:29:09.064Z,44.10
2018-01-11T14:31:36.517Z,43.50
2018-01-11T14:34:03.950Z,43.03
2018-01-11T14:36:31.525Z,44.50
2018-01-11T14:38:58.942Z,43.17
2018-01-11T14:41:27.140Z,43.97
2018-01-11T14:43:54.684Z,44.80
2018-01-11T14:46:22.892Z,48.10
2018-01-11T14:48:50.320Z,45.87
2018-01-11T14:51:17.816Z,48.27
2018-01-11T14:53:45.244Z,44.47
2018-01-11T14:56:12.678Z,49.67
2018-01-11T14:58:40.889Z,47.30
2018-01-11T15:01:08.316Z,49.53
2018-01-11T15:03:36.534Z,50.20
2018-01-11T15:06:03.998Z,46.83
2018-01-11T15:08:31.430Z,48.07
2018-01-11T15:10:58.904Z,47.73
2018-01-11T15:13:26.348Z,49.77
2018-01-11T15:15:53.784Z,53.33
2018-01-11T15:18:21.216Z,52.20
2018-01-11T15:20:49.448Z,54.10
2018-01-11T15:23:16.881Z,54.37
2018-01-11T15:25:44.364Z,58.97
2018-01-11T15:28:11.820Z,58.33
2018-01-11T15:30:39.261Z,59.23
2018-01-11T15:33:06.685Z,60.50
2018-01-11T15:35:34.948Z,59.97
2018-01-11T15:38:02.464Z,58.70
2018-01-11T15:40:29.896Z,60.83
2018-01-11T15:42:57.389Z,59.57
2018-01-11T15:45:25.537Z,62.33
2018-01-11T15:47:52.961Z,62.47
2018-01-11T15:50:21.173Z,64.83
2018-01-11T15:52:48.596Z,62.17
2018-01-11T15:55:16.802Z,61.00
2018-01-11T15:57:44.232Z,63.13
2018-01-11T16:00:12.440Z,60.87
2018-01-11T16:02:40.000Z,62.63
2018-01-11T16:05:07.472Z,65.77
2018-01-11T16:07:34.952Z,61.17
2018-01-11T16:10:02.384Z,66.83
2018-01-11T16:12:29.942Z,68.60
2018-01-11T16:14:57.436Z,90.85
2018-01-11T16:17:24.860Z,74.40
2018-01-11T16:19:52.300Z,103.97
2018-01-11T16:22:19.776Z,76.37
2018-01-11T16:24:47.205Z,73.17
2018-01-11T16:27:14.688Z,75.07
2018-01-11T16:29:42.172Z,72.63
2018-01-11T16:32:09.592Z,68.67
2018-01-11T16:34:37.057Z,69.30
2018-01-11T16:37:04.532Z,72.73
2018-01-11T16:39:31.944Z,68.83
2018-01-11T16:41:59.410Z,66.80
2018-01-11T16:44:27.615Z,66.37
2018-01-11T16:46:55.060Z,75.90
2018-01-11T16:49:22.616Z,67.83
2018-01-11T16:51:50.062Z,65.83
2018-01-11T16:54:17.512Z,63.17
2018-01-11T16:56:44.979Z,62.37
2018-01-11T16:59:12.514Z,65.33
2018-01-11T17:01:40.009Z,61.17
2018-01-11T17:04:07.508Z,64.70
2018-01-11T17:06:34.932Z,64.43
2018-01-11T17:09:04.368Z,68.17
2018-01-11T17:11:33.221Z,62.03
2018-01-11T17:14:00.662Z,63.57
2018-01-11T17:16:28.096Z,61.03
2018-01-11T17:18:55.536Z,60.90
2018-01-11T17:21:23.733Z,58.83
2018-01-11T17:23:51.217Z,58.27
2018-01-11T17:26:18.693Z,60.13
2018-01-11T17:28:46.128Z,63.37
2018-01-11T17:31:13.584Z,58.80
2018-01-11T17:33:41.020Z,58.30
2018-01-11T17:36:08.458Z,59.97
2018-01-11T17:38:36.681Z,62.50
2018-01-11T17:41:04.130Z,62.80
2018-01-11T17:43:31.570Z,62.00
2018-01-11T17:45:59.001Z,66.90
2018-01-11T17:48:27.220Z,70.17
2018-01-11T17:50:54.692Z,64.90
2018-01-11T17:53:22.129Z,64.33
2018-01-11T17:55:49.552Z,63.57
2018-01-11T17:58:17.760Z,61.67
2018-01-11T18:00:45.194Z,65.80
2018-01-11T18:03:12.722Z,64.17
2018-01-11T18:05:40.145Z,62.27
2018-01-11T18:08:07.568Z,67.43
2018-01-11T18:10:35.020Z,64.27
2018-01-11T18:13:02.508Z,65.00
2018-01-11T18:15:29.944Z,65.40
2018-01-11T18:17:57.420Z,66.27
2018-01-11T18:20:24.861Z,62.23
2018-01-11T18:22:52.288Z,64.87
2018-01-11T18:25:20.512Z,64.33
2018-01-11T18:27:48.293Z,63.53
2018-01-11T18:30:15.744Z,63.50
2018-01-11T18:32:43.189Z,62.67
2018-01-11T18:35:10.620Z,62.87
2018-01-11T18:37:38.048Z,72.97
2018-01-11T18:40:06.248Z,70.27
2018-01-11T18:42:33.688Z,67.20
2018-01-11T18:45:01.881Z,67.57
2018-01-11T18:47:29.366Z,67.23
2018-01-11T18:49:56.833Z,67.67
2018-01-11T18:52:24.280Z,67.40
2018-01-11T18:54:51.736Z,67.93
2018-01-11T18:57:19.172Z,67.13
2018-01-11T18:59:46.612Z,62.83
2018-01-11T19:02:14.876Z,67.30
2018-01-11T19:04:42.384Z,64.90
2018-01-11T19:07:09.840Z,71.23
2018-01-11T19:09:37.290Z,71.97
2018-01-11T19:12:04.760Z,70.37
2018-01-11T19:14:32.196Z,70.43
2018-01-11T19:16:59.673Z,68.67
2018-01-11T19:19:27.144Z,70.57
2018-01-11T19:21:54.576Z,71.70
2018-01-11T19:24:22.035Z,74.40
2018-01-11T19:26:49.509Z,72.47
2018-01-11T19:29:16.965Z,68.10
2018-01-11T19:31:44.401Z,66.27
2018-01-11T19:34:11.876Z,68.87
2018-01-11T19:36:39.304Z,71.70
2018-01-11T19:39:06.753Z,74.53
2018-01-11T19:41:34.188Z,71.97
2018-01-11T19:44:02.390Z,72.60
2018-01-11T19:46:29.833Z,69.30
2018-01-11T19:48:58.029Z,69.07
2018-01-11T19:51:25.508Z,72.87
2018-01-11T19:53:52.952Z,70.43
2018-01-11T19:56:20.424Z,71.10
2018-01-11T19:58:47.892Z,76.23
2018-01-11T20:01:15.342Z,70.93
2018-01-11T20:03:42.799Z,82.90
2018-01-11T20:06:10.234Z,79.83
2018-01-11T20:08:38.549Z,73.10
2018-01-11T20:11:05.980Z,74.60
2018-01-11T20:13:33.440Z,76.67
2018-01-11T20:16:00.888Z,70.90
2018-01-11T20:18:28.376Z,73.07
2018-01-11T20:20:55.852Z,72.83
2018-01-11T20:23:23.296Z,75.33
2018-01-11T20:25:50.738Z,67.83
2018-01-11T20:28:18.182Z,74.47
2018-01-11T20:30:45.620Z,76.20
2018-01-11T20:33:13.826Z,72.60
2018-01-11T20:35:41.261Z,70.70
2018-01-11T20:38:08.707Z,76.27
2018-01-11T20:40:36.916Z,75.17
2018-01-11T20:43:04.348Z,80.07
2018-01-11T20:45:31.840Z,79.53
2018-01-11T20:47:59.321Z,79.93
2018-01-11T20:50:26.877Z,80.10
2018-01-11T20:52:54.416Z,73.20
2018-01-11T20:55:21.855Z,75.40
2018-01-11T20:57:49.294Z,76.87
2018-01-11T21:00:17.604Z,78.77
2018-01-11T21:02:45.054Z,79.30
2018-01-11T21:05:12.484Z,78.90
2018-01-11T21:07:39.988Z,77.00
2018-01-11T21:10:07.432Z,77.17
2018-01-11T21:12:34.882Z,77.47
2018-01-11T21:15:02.356Z,90.83
2018-01-11T21:17:29.814Z,74.47
2018-01-11T21:19:57.252Z,78.70
2018-01-11T21:22:24.724Z,74.27
2018-01-11T21:24:52.180Z,71.83
2018-01-11T21:27:19.637Z,70.67
2018-01-11T21:29:47.084Z,78.20
2018-01-11T21:32:14.577Z,73.60
2018-01-11T21:34:42.008Z,78.63
2018-01-11T21:37:09.464Z,73.87
2018-01-11T21:39:36.907Z,75.97
2018-01-11T21:42:04.341Z,71.53
2018-01-11T21:44:32.546Z,74.37
2018-01-11T21:47:00.001Z,73.07
2018-01-11T21:49:27.421Z,68.90
2018-01-11T21:51:55.628Z,69.07
2018-01-11T21:54:23.048Z,67.10
2018-01-11T21:56:51.272Z,69.57
2018-01-11T21:59:18.750Z,72.80
2018-01-11T22:01:46.301Z,73.23
2018-01-11T22:04:13.738Z,69.60
2018-01-11T22:06:41.180Z,73.83
2018-01-11T22:09:08.668Z,73.63
2018-01-11T22:11:36.110Z,70.00
2018-01-11T22:14:03.576Z,75.13
2018-01-11T22:16:31.036Z,70.57
2018-01-11T22:18:58.496Z,75.70
2018-01-11T22:21:25.928Z,70.33
2018-01-11T22:23:53.362Z,65.57
2018-01-11T22:26:21.577Z,68.53
2018-01-11T22:28:49.031Z,65.47
2018-01-11T22:31:16.460Z,67.97
2018-01-11T22:33:43.916Z,66.43
2018-01-11T22:36:11.405Z,66.53
2018-01-11T22:38:38.865Z,61.50
2018-01-11T22:41:06.296Z,64.37
2018-01-11T22:43:33.740Z,60.37
2018-01-11T22:46:01.181Z,61.63
2018-01-11T22:48:30.121Z,63.67
2018-01-11T22:50:57.589Z,60.73
2018-01-11T22:53:25.036Z,65.80
2018-01-11T22:55:52.520Z,59.27
2018-01-11T22:58:19.960Z,64.87
2018-01-11T23:00:47.417Z,62.17
2018-01-11T23:03:14.882Z,63.33
2018-01-11T23:05:42.334Z,58.57
2018-01-11T23:08:09.764Z,60.13
2018-01-11T23:10:37.194Z,63.23
2018-01-11T23:13:05.524Z,59.80
2018-01-11T23:15:32.970Z,57.50
2018-01-11T23:18:00.417Z,64.67
2018-01-11T23:20:27.898Z,62.63
2018-01-11T23:22:55.320Z,59.10
2018-01-11T23:25:22.752Z,57.30
2018-01-11T23:27:51.070Z,57.47
2018-01-11T23:30:18.492Z,59.53
2018-01-11T23:32:46.713Z,53.63
2018-01-11T23:35:14.168Z,56.53
2018-01-11T23:37:41.592Z,58.77
2018-01-11T23:40:09.133Z,58.33
2018-01-11T23:42:37.340Z,59.97
2018-01-11T23:45:04.772Z,56.73
2018-01-11T23:47:32.968Z,56.87
2018-01-11T23:50:00.528Z,60.33
2018-01-11T23:52:28.007Z,58.00
2018-01-11T23:54:55.461Z,59.43
2018-01-11T23:57:22.909Z,62.40
2018-01-11T23:59:50.336Z,60.30
